createdAt,value
2023-02-26T00:02:17.258Z,0.47
2023-02-26T00:04:43.977Z,0.50
2023-02-26T00:07:10.669Z,0.40
2023-02-26T00:09:37.270Z,0.50
2023-02-26T00:12:04.283Z,0.40
2023-02-26T00:14:31.289Z,0.50
2023-02-26T00:17:08.321Z,0.40
2023-02-26T00:19:35.191Z,0.40
2023-02-26T00:22:02.160Z,0.40
2023-02-26T00:24:28.915Z,0.47
2023-02-26T00:26:55.663Z,0.47
2023-02-26T00:29:22.801Z,0.40
2023-02-26T00:31:50.065Z,0.50
2023-02-26T00:34:17.240Z,0.50
2023-02-26T00:37:03.124Z,0.40
2023-02-26T00:39:29.714Z,0.40
2023-02-26T00:41:56.767Z,0.47
2023-02-26T00:44:23.764Z,0.40
2023-02-26T00:47:00.773Z,0.40
2023-02-26T00:49:33.591Z,0.40
2023-02-26T00:52:05.100Z,0.40
2023-02-26T00:54:31.893Z,0.40
2023-02-26T00:56:59.557Z,0.45
2023-02-26T00:59:26.381Z,0.47
2023-02-26T01:01:53.555Z,0.47
2023-02-26T01:04:22.784Z,0.50
2023-02-26T01:06:55.385Z,0.40
2023-02-26T01:09:36.880Z,0.40
2023-02-26T01:12:13.381Z,0.40
2023-02-26T01:14:41.135Z,0.50
2023-02-26T01:17:29.691Z,0.40
2023-02-26T01:20:06.337Z,0.40
2023-02-26T01:22:54.657Z,0.45
2023-02-26T01:25:26.880Z,0.40
2023-02-26T01:27:54.276Z,0.50
2023-02-26T01:30:21.805Z,0.40
2023-02-26T01:32:51.695Z,0.40
2023-02-26T01:35:42.721Z,0.45
2023-02-26T01:38:28.525Z,0.50
2023-02-26T01:41:07.970Z,0.50
2023-02-26T01:43:57.053Z,0.50
2023-02-26T01:46:41.953Z,0.55
2023-02-26T01:49:14.797Z,0.50
2023-02-26T01:51:51.378Z,0.40
2023-02-26T01:54:28.668Z,0.40
2023-02-26T01:57:10.284Z,0.40
2023-02-26T01:59:43.828Z,0.50
2023-02-26T02:04:38.905Z,0.50
2023-02-26T02:07:06.612Z,0.50
2023-02-26T02:09:33.725Z,0.45
2023-02-26T02:12:12.819Z,0.50
2023-02-26T02:14:48.480Z,0.50
2023-02-26T02:17:20.307Z,0.50
2023-02-26T02:20:11.138Z,0.50
2023-02-26T02:22:43.896Z,0.50
2023-02-26T02:25:32.095Z,0.30
2023-02-26T02:28:03.967Z,0.50
2023-02-26T02:30:50.012Z,0.50
2023-02-26T02:33:20.225Z,0.50
2023-02-26T02:35:57.939Z,0.50
2023-02-26T02:38:33.022Z,0.40
2023-02-26T02:41:11.194Z,0.50
2023-02-26T02:43:41.084Z,0.50
2023-02-26T02:46:16.194Z,0.40
2023-02-26T02:48:59.217Z,0.50
2023-02-26T02:51:31.193Z,0.30
2023-02-26T02:54:05.236Z,0.40
2023-02-26T02:56:42.185Z,0.40
2023-02-26T02:59:32.228Z,0.40
2023-02-26T03:02:13.139Z,0.40
2023-02-26T03:04:41.510Z,0.32
2023-02-26T03:07:08.885Z,0.40
2023-02-26T03:09:36.136Z,0.40
2023-02-26T03:12:03.885Z,0.50
2023-02-26T03:14:31.778Z,0.40
2023-02-26T03:17:03.566Z,0.40
2023-02-26T03:20:00.578Z,0.40
2023-02-26T03:22:39.576Z,0.50
2023-02-26T03:25:26.948Z,0.40
2023-02-26T03:28:25.660Z,0.52
2023-02-26T03:31:08.693Z,0.40
2023-02-26T03:33:53.677Z,0.45
2023-02-26T03:36:40.567Z,0.40
2023-02-26T03:39:33.590Z,0.40
2023-02-26T03:42:09.940Z,0.40
2023-02-26T03:44:53.328Z,0.30
2023-02-26T03:47:20.658Z,0.30
2023-02-26T03:50:18.076Z,0.50
2023-02-26T03:53:08.064Z,0.50
2023-02-26T03:55:47.487Z,0.40
2023-02-26T03:58:43.420Z,0.50
2023-02-26T04:01:38.761Z,0.40
2023-02-26T04:04:10.655Z,0.45
2023-02-26T04:06:37.677Z,0.50
2023-02-26T04:09:05.538Z,0.40
2023-02-26T04:11:36.551Z,0.50
2023-02-26T04:14:03.252Z,0.40
2023-02-26T04:16:33.517Z,0.50
2023-02-26T04:19:00.210Z,0.50
2023-02-26T04:21:27.011Z,0.60
2023-02-26T04:23:53.774Z,0.50
2023-02-26T04:26:20.608Z,0.50
2023-02-26T04:28:47.240Z,0.50
2023-02-26T04:31:14.472Z,0.50
2023-02-26T04:33:41.484Z,0.50
2023-02-26T04:36:09.094Z,0.50
2023-02-26T04:38:36.441Z,0.50
2023-02-26T04:41:04.738Z,0.40
2023-02-26T04:43:31.564Z,0.50
2023-02-26T04:46:12.754Z,0.50
2023-02-26T04:48:40.184Z,0.50
2023-02-26T04:51:07.023Z,0.40
2023-02-26T04:53:33.738Z,0.50
2023-02-26T04:56:00.473Z,0.50
2023-02-26T04:58:27.125Z,0.50
2023-02-26T05:00:57.580Z,0.50
2023-02-26T05:03:24.499Z,0.50
2023-02-26T05:05:51.490Z,0.60
2023-02-26T05:08:18.123Z,0.50
2023-02-26T05:10:45.909Z,0.50
2023-02-26T05:13:12.597Z,0.50
2023-02-26T05:15:39.296Z,0.50
2023-02-26T05:18:06.077Z,0.60
2023-02-26T05:20:32.751Z,0.50
2023-02-26T05:22:59.421Z,0.60
2023-02-26T05:25:26.086Z,0.50
2023-02-26T05:27:52.876Z,0.50
2023-02-26T05:30:19.621Z,0.50
2023-02-26T05:32:46.494Z,0.50
2023-02-26T05:35:13.723Z,0.60
2023-02-26T05:37:40.836Z,0.50
2023-02-26T05:40:11.863Z,0.60
2023-02-26T05:42:39.606Z,0.60
2023-02-26T05:45:07.031Z,0.50
2023-02-26T05:47:34.311Z,0.52
2023-02-26T05:50:01.682Z,0.52
2023-02-26T05:52:28.376Z,0.60
2023-02-26T05:54:56.152Z,0.55
2023-02-26T05:57:23.835Z,0.50
2023-02-26T05:59:50.838Z,0.60
2023-02-26T06:02:17.578Z,0.50
2023-02-26T06:04:44.274Z,0.60
2023-02-26T06:07:10.890Z,0.50
2023-02-26T06:09:37.472Z,0.60
2023-02-26T06:12:04.233Z,0.73
2023-02-26T06:14:31.087Z,0.50
2023-02-26T06:16:57.720Z,0.60
2023-02-26T06:19:24.451Z,0.60
2023-02-26T06:21:51.156Z,0.60
2023-02-26T06:24:17.781Z,0.50
2023-02-26T06:26:44.463Z,0.50
2023-02-26T06:29:11.124Z,0.50
2023-02-26T06:31:38.000Z,0.50
2023-02-26T06:34:04.836Z,0.50
2023-02-26T06:36:31.612Z,0.50
2023-02-26T06:38:58.245Z,0.50
2023-02-26T06:41:24.995Z,0.45
2023-02-26T06:43:51.651Z,0.50
2023-02-26T06:46:18.459Z,0.52
2023-02-26T06:48:45.143Z,0.50
2023-02-26T06:51:11.836Z,0.50
2023-02-26T06:53:38.508Z,0.50
2023-02-26T06:56:05.677Z,0.60
2023-02-26T06:58:32.521Z,0.50
2023-02-26T07:00:59.193Z,0.43
2023-02-26T07:03:25.827Z,0.40
2023-02-26T07:05:52.917Z,0.40
2023-02-26T07:08:19.680Z,0.50
2023-02-26T07:10:49.309Z,0.40
2023-02-26T07:13:17.272Z,0.40
2023-02-26T07:15:46.192Z,0.30
2023-02-26T07:18:12.957Z,0.30
2023-02-26T07:20:39.822Z,0.30
2023-02-26T07:23:06.572Z,0.43
2023-02-26T07:25:33.990Z,0.20
2023-02-26T07:28:00.587Z,0.30
2023-02-26T07:30:27.343Z,0.40
2023-02-26T07:32:54.028Z,0.40
2023-02-26T07:35:20.617Z,0.30
2023-02-26T07:37:47.205Z,0.40
2023-02-26T07:40:14.426Z,0.30
2023-02-26T07:42:41.353Z,0.30
2023-02-26T07:45:08.899Z,0.30
2023-02-26T07:47:35.614Z,0.20
2023-02-26T07:50:02.500Z,0.40
2023-02-26T07:52:29.308Z,0.30
2023-02-26T07:54:56.490Z,0.30
2023-02-26T07:57:23.227Z,0.20
2023-02-26T07:59:49.945Z,0.40
2023-02-26T08:02:17.088Z,0.32
2023-02-26T08:04:43.838Z,0.40
2023-02-26T08:07:10.681Z,0.30
2023-02-26T08:09:37.465Z,0.30
2023-02-26T08:12:04.202Z,0.30
2023-02-26T08:14:30.831Z,0.30
2023-02-26T08:16:57.465Z,0.20
2023-02-26T08:19:24.115Z,0.30
2023-02-26T08:21:51.017Z,0.30
2023-02-26T08:24:17.819Z,0.30
2023-02-26T08:26:46.349Z,0.30
2023-02-26T08:29:13.103Z,0.30
2023-02-26T08:31:42.855Z,0.30
2023-02-26T08:34:09.566Z,0.20
2023-02-26T08:36:36.173Z,0.30
2023-02-26T08:39:03.175Z,0.32
2023-02-26T08:41:32.425Z,0.30
2023-02-26T08:43:59.964Z,0.30
2023-02-26T08:46:27.329Z,0.30
2023-02-26T08:48:54.533Z,0.30
2023-02-26T08:51:22.643Z,0.30
2023-02-26T08:53:50.710Z,0.30
2023-02-26T08:56:17.818Z,0.30
2023-02-26T08:58:44.413Z,0.38
2023-02-26T09:01:11.336Z,0.40
2023-02-26T09:03:38.133Z,0.30
2023-02-26T09:06:05.016Z,0.30
2023-02-26T09:08:35.612Z,0.30
2023-02-26T09:11:03.061Z,0.30
2023-02-26T09:13:30.452Z,0.40
2023-02-26T09:15:57.496Z,0.30
2023-02-26T09:18:24.432Z,0.40
2023-02-26T09:20:51.315Z,0.30
2023-02-26T09:23:18.296Z,0.30
2023-02-26T09:25:45.302Z,0.22
2023-02-26T09:28:12.043Z,0.30
2023-02-26T09:30:38.754Z,0.30
2023-02-26T09:33:05.697Z,0.30
2023-02-26T09:35:32.365Z,0.30
2023-02-26T09:37:59.212Z,0.30
2023-02-26T09:40:45.312Z,0.30
2023-02-26T09:43:34.538Z,0.30
2023-02-26T09:46:35.985Z,0.40
2023-02-26T09:49:13.108Z,0.40
2023-02-26T09:51:40.347Z,0.30
2023-02-26T09:54:18.441Z,0.30
2023-02-26T09:56:45.532Z,0.30
2023-02-26T09:59:13.244Z,0.40
2023-02-26T10:02:44.783Z,0.40
2023-02-26T10:05:33.848Z,0.30
2023-02-26T10:08:04.817Z,0.40
2023-02-26T10:10:50.162Z,0.30
2023-02-26T10:13:31.734Z,0.20
2023-02-26T10:16:05.580Z,0.20
2023-02-26T10:18:37.749Z,0.30
2023-02-26T10:21:12.770Z,0.40
2023-02-26T10:23:46.283Z,0.32
2023-02-26T10:26:25.199Z,0.30
2023-02-26T10:29:33.461Z,0.40
2023-02-26T10:32:20.063Z,0.40
2023-02-26T10:34:57.130Z,0.30
2023-02-26T10:37:49.725Z,0.30
2023-02-26T10:40:16.416Z,0.30
2023-02-26T10:42:55.405Z,0.30
2023-02-26T10:45:40.584Z,0.30
2023-02-26T10:48:18.489Z,0.30
2023-02-26T10:50:53.853Z,0.30
2023-02-26T10:53:22.069Z,0.40
2023-02-26T10:55:54.077Z,0.38
2023-02-26T10:58:25.571Z,0.30
2023-02-26T11:00:55.195Z,0.30
2023-02-26T11:03:30.758Z,0.25
2023-02-26T11:05:57.651Z,0.30
2023-02-26T11:08:30.852Z,0.30
2023-02-26T11:11:01.041Z,0.20
2023-02-26T11:13:30.094Z,0.30
2023-02-26T11:16:00.580Z,0.30
2023-02-26T11:18:36.573Z,0.30
2023-02-26T11:21:05.667Z,0.30
2023-02-26T11:23:33.528Z,0.30
2023-02-26T11:26:07.181Z,0.30
2023-02-26T11:28:47.243Z,0.20
2023-02-26T11:31:18.236Z,0.30
2023-02-26T11:33:58.844Z,0.20
2023-02-26T11:36:28.584Z,0.20
2023-02-26T11:38:58.774Z,0.30
2023-02-26T11:41:28.003Z,0.30
2023-02-26T11:44:03.125Z,0.20
2023-02-26T11:46:29.931Z,0.30
2023-02-26T11:48:59.871Z,0.30
2023-02-26T11:51:29.008Z,0.38
2023-02-26T11:54:01.634Z,0.20
2023-02-26T11:56:42.421Z,0.30
2023-02-26T11:59:20.450Z,0.30
2023-02-26T12:01:48.230Z,0.30
2023-02-26T12:04:19.596Z,0.20
2023-02-26T12:06:54.340Z,0.30
2023-02-26T12:09:21.701Z,0.30
2023-02-26T12:12:30.135Z,0.30
2023-02-26T12:15:01.382Z,0.30
2023-02-26T12:17:35.329Z,0.30
2023-02-26T12:20:22.244Z,0.30
2023-02-26T12:23:09.276Z,0.30
2023-02-26T12:25:49.263Z,0.30
2023-02-26T12:28:27.017Z,0.30
2023-02-26T12:31:29.710Z,0.30
2023-02-26T12:34:05.097Z,0.30
2023-02-26T12:37:22.939Z,0.30
2023-02-26T12:40:06.562Z,0.30
2023-02-26T12:42:51.511Z,0.20
2023-02-26T12:45:40.934Z,0.30
2023-02-26T12:48:40.217Z,0.20
2023-02-26T12:51:51.319Z,0.20
2023-02-26T12:54:53.070Z,0.30
2023-02-26T12:57:29.047Z,0.30
2023-02-26T13:00:12.933Z,0.20
2023-02-26T13:03:13.739Z,0.20
2023-02-26T13:06:08.084Z,0.20
2023-02-26T13:11:50.346Z,0.20
2023-02-26T13:14:43.567Z,0.30
2023-02-26T13:17:14.749Z,0.30
2023-02-26T13:19:48.703Z,0.20
2023-02-26T13:22:20.340Z,0.30
2023-02-26T13:25:20.960Z,0.22
2023-02-26T13:27:50.113Z,0.20
2023-02-26T13:30:26.079Z,0.20
2023-02-26T13:32:58.766Z,0.30
2023-02-26T13:35:31.271Z,0.28
2023-02-26T13:38:01.734Z,0.30
2023-02-26T13:40:34.406Z,0.30
2023-02-26T13:43:04.393Z,0.20
2023-02-26T13:45:33.765Z,0.30
2023-02-26T13:48:17.072Z,0.30
2023-02-26T13:51:09.330Z,0.20
2023-02-26T13:53:48.044Z,0.20
2023-02-26T13:56:17.072Z,0.20
2023-02-26T13:58:49.466Z,0.20
2023-02-26T14:01:27.682Z,0.20
2023-02-26T14:04:23.929Z,0.20
2023-02-26T14:07:13.238Z,0.20
2023-02-26T14:10:15.370Z,0.20
2023-02-26T14:12:43.605Z,0.30
2023-02-26T14:15:13.410Z,0.20
2023-02-26T14:17:51.630Z,0.30
2023-02-26T14:20:27.457Z,0.30
2023-02-26T14:23:24.001Z,0.30
2023-02-26T14:25:55.053Z,0.20
2023-02-26T14:28:28.046Z,0.30
2023-02-26T14:31:20.009Z,0.20
2023-02-26T14:33:59.914Z,0.30
2023-02-26T14:36:35.651Z,0.30
2023-02-26T14:39:06.554Z,0.28
2023-02-26T14:41:41.272Z,0.20
2023-02-26T14:44:18.370Z,0.20
2023-02-26T14:46:45.740Z,0.22
2023-02-26T14:49:20.518Z,0.22
2023-02-26T14:52:18.993Z,0.20
2023-02-26T14:54:53.321Z,0.20
2023-02-26T14:57:31.958Z,0.20
2023-02-26T15:00:19.095Z,0.30
2023-02-26T15:03:13.701Z,0.25
2023-02-26T15:06:05.417Z,0.20
2023-02-26T15:08:41.029Z,0.20
2023-02-26T15:11:52.325Z,0.30
2023-02-26T15:14:46.899Z,0.20
2023-02-26T15:17:31.620Z,0.30
2023-02-26T15:20:10.459Z,0.20
2023-02-26T15:23:03.011Z,0.20
2023-02-26T15:25:34.139Z,0.20
2023-02-26T15:28:07.505Z,0.30
2023-02-26T15:30:34.803Z,0.20
2023-02-26T15:33:05.323Z,0.20
2023-02-26T15:35:34.985Z,0.20
2023-02-26T15:38:04.259Z,0.20
2023-02-26T15:40:35.004Z,0.30
2023-02-26T15:43:02.509Z,0.20
2023-02-26T15:45:38.927Z,0.30
2023-02-26T15:48:09.386Z,0.20
2023-02-26T15:50:40.872Z,0.20
2023-02-26T15:53:09.693Z,0.30
2023-02-26T15:55:40.318Z,0.30
2023-02-26T15:58:08.115Z,0.20
2023-02-26T16:00:37.181Z,0.30
2023-02-26T16:03:04.813Z,0.20
2023-02-26T16:05:32.338Z,0.30
2023-02-26T16:07:59.164Z,0.20
2023-02-26T16:10:38.387Z,0.20
2023-02-26T16:13:06.862Z,0.30
2023-02-26T16:15:37.852Z,0.30
2023-02-26T16:18:08.799Z,0.30
2023-02-26T16:20:42.609Z,0.20
2023-02-26T16:23:17.585Z,0.30
2023-02-26T16:25:53.388Z,0.30
2023-02-26T16:28:28.375Z,0.30
2023-02-26T16:30:57.513Z,0.30
2023-02-26T16:33:26.033Z,0.30
2023-02-26T16:36:04.599Z,0.30
2023-02-26T16:38:42.598Z,0.30
2023-02-26T16:41:11.490Z,0.30
2023-02-26T16:43:50.304Z,0.30
2023-02-26T16:46:53.031Z,0.30
2023-02-26T16:49:25.024Z,0.30
2023-02-26T16:51:54.079Z,0.20
2023-02-26T16:54:23.808Z,0.40
2023-02-26T16:57:02.592Z,0.30
2023-02-26T16:59:32.096Z,0.40
2023-02-26T17:02:05.585Z,0.30
2023-02-26T17:04:35.436Z,0.30
2023-02-26T17:07:05.269Z,0.30
2023-02-26T17:09:40.152Z,0.30
2023-02-26T17:12:24.073Z,0.30
2023-02-26T17:17:24.532Z,0.30
2023-02-26T17:19:51.685Z,0.30
2023-02-26T17:22:25.778Z,0.40
2023-02-26T17:24:53.763Z,0.30
2023-02-26T17:27:33.085Z,0.30
2023-02-26T17:30:02.298Z,0.40
2023-02-26T17:32:31.028Z,0.40
2023-02-26T17:34:58.726Z,0.30
2023-02-26T17:37:31.408Z,0.30
2023-02-26T17:39:59.601Z,0.30
2023-02-26T17:42:26.571Z,0.30
2023-02-26T17:44:55.198Z,0.30
2023-02-26T17:47:24.276Z,0.40
2023-02-26T17:49:50.918Z,0.40
2023-02-26T17:52:17.741Z,0.30
2023-02-26T17:54:44.372Z,0.40
2023-02-26T17:57:17.104Z,0.40
2023-02-26T17:59:43.795Z,0.30
2023-02-26T18:02:28.663Z,0.35
2023-02-26T18:04:55.386Z,0.30
2023-02-26T18:07:23.852Z,0.40
2023-02-26T18:09:50.690Z,0.40
2023-02-26T18:12:20.390Z,0.40
2023-02-26T18:14:47.546Z,0.40
2023-02-26T18:17:18.145Z,0.50
2023-02-26T18:19:46.404Z,0.40
2023-02-26T18:22:14.427Z,0.40
2023-02-26T18:24:41.662Z,0.40
2023-02-26T18:27:20.213Z,0.40
2023-02-26T18:29:47.537Z,0.40
2023-02-26T18:32:20.236Z,0.47
2023-02-26T18:34:49.340Z,0.30
2023-02-26T18:37:18.832Z,0.40
2023-02-26T18:39:45.858Z,0.40
2023-02-26T18:42:25.009Z,0.40
2023-02-26T18:44:53.005Z,0.40
2023-02-26T18:47:21.088Z,0.30
2023-02-26T18:49:49.444Z,0.40
2023-02-26T18:52:16.118Z,0.40
2023-02-26T18:54:42.869Z,0.60
2023-02-26T18:57:10.176Z,0.50
2023-02-26T18:59:36.783Z,0.40
2023-02-26T19:02:04.929Z,0.40
2023-02-26T19:04:31.679Z,0.40
2023-02-26T19:06:58.549Z,0.40
2023-02-26T19:09:25.316Z,0.50
2023-02-26T19:11:51.990Z,0.40
2023-02-26T19:14:19.092Z,0.30
2023-02-26T19:16:45.895Z,0.50
2023-02-26T19:19:12.938Z,0.40
2023-02-26T19:21:40.442Z,0.40
2023-02-26T19:24:09.761Z,0.40
2023-02-26T19:26:37.086Z,0.30
2023-02-26T19:29:05.950Z,0.40
2023-02-26T19:31:33.247Z,0.40
2023-02-26T19:33:59.944Z,0.40
2023-02-26T19:36:27.750Z,0.50
2023-02-26T19:38:54.459Z,0.40
2023-02-26T19:41:21.091Z,0.40
2023-02-26T19:43:48.009Z,0.40
2023-02-26T19:46:15.725Z,0.40
2023-02-26T19:48:43.152Z,0.50
2023-02-26T19:51:10.198Z,0.52
2023-02-26T19:53:36.864Z,0.40
2023-02-26T19:56:04.868Z,0.40
2023-02-26T19:58:33.083Z,0.40
2023-02-26T20:01:02.248Z,0.50
2023-02-26T20:03:29.509Z,0.35
2023-02-26T20:05:56.320Z,0.50
2023-02-26T20:08:26.953Z,0.40
2023-02-26T20:10:56.263Z,0.40
2023-02-26T20:13:24.749Z,0.43
2023-02-26T20:15:53.524Z,0.40
2023-02-26T20:18:20.354Z,0.40
2023-02-26T20:20:47.049Z,0.30
2023-02-26T20:23:13.846Z,0.50
2023-02-26T20:25:43.723Z,0.50
2023-02-26T20:28:11.040Z,0.50
2023-02-26T20:30:37.712Z,0.40
2023-02-26T20:33:04.630Z,0.43
2023-02-26T20:35:31.486Z,0.45
2023-02-26T20:37:58.331Z,0.43
2023-02-26T20:40:25.114Z,0.40
2023-02-26T20:42:51.763Z,0.50
2023-02-26T20:45:18.522Z,0.40
2023-02-26T20:47:45.306Z,0.40
2023-02-26T20:50:13.844Z,0.40
2023-02-26T20:52:40.561Z,0.40
2023-02-26T20:55:07.609Z,0.40
2023-02-26T20:57:35.459Z,0.40
2023-02-26T21:00:10.339Z,0.50
2023-02-26T21:02:38.281Z,0.50
2023-02-26T21:05:05.965Z,0.50
2023-02-26T21:07:32.837Z,0.50
2023-02-26T21:09:59.686Z,0.47
2023-02-26T21:12:28.519Z,0.40
2023-02-26T21:14:55.881Z,0.50
2023-02-26T21:17:24.555Z,0.50
2023-02-26T21:19:51.998Z,0.40
2023-02-26T21:22:19.615Z,0.40
2023-02-26T21:24:46.460Z,0.47
2023-02-26T21:27:13.488Z,0.47
2023-02-26T21:29:40.100Z,0.40
2023-02-26T21:32:07.213Z,0.40
2023-02-26T21:34:35.083Z,0.40
2023-02-26T21:37:07.279Z,0.55
2023-02-26T21:39:36.528Z,0.40
2023-02-26T21:42:03.895Z,0.50
2023-02-26T21:44:35.265Z,0.50
2023-02-26T21:47:03.707Z,0.40
2023-02-26T21:49:31.941Z,0.50
2023-02-26T21:51:59.943Z,0.50
2023-02-26T21:54:26.715Z,0.50
2023-02-26T21:56:53.752Z,0.50
2023-02-26T21:59:21.478Z,0.40
2023-02-26T22:01:48.043Z,0.50
2023-02-26T22:04:14.821Z,0.40
2023-02-26T22:06:43.000Z,0.50
2023-02-26T22:09:10.089Z,0.50
2023-02-26T22:11:36.910Z,0.40
2023-02-26T22:14:03.580Z,0.50
2023-02-26T22:16:30.281Z,0.50
2023-02-26T22:18:57.278Z,0.40
2023-02-26T22:21:24.293Z,0.40
2023-02-26T22:23:51.159Z,0.50
2023-02-26T22:26:18.370Z,0.50
2023-02-26T22:28:45.267Z,0.50
2023-02-26T22:31:12.384Z,0.50
2023-02-26T22:33:39.146Z,0.50
2023-02-26T22:36:06.020Z,0.50
2023-02-26T22:38:32.618Z,0.50
2023-02-26T22:40:59.407Z,0.50
2023-02-26T22:43:25.980Z,0.50
2023-02-26T22:45:52.627Z,0.50
2023-02-26T22:48:19.892Z,0.50
2023-02-26T22:50:46.509Z,0.50
2023-02-26T22:53:13.144Z,0.52
2023-02-26T22:55:39.759Z,0.50
2023-02-26T22:58:06.687Z,0.50
2023-02-26T23:00:33.285Z,0.50
2023-02-26T23:03:00.367Z,0.50
2023-02-26T23:05:27.040Z,0.50
2023-02-26T23:07:53.769Z,0.50
2023-02-26T23:10:21.554Z,0.50
2023-02-26T23:12:48.209Z,0.60
2023-02-26T23:15:15.348Z,0.60
2023-02-26T23:17:42.577Z,0.57
2023-02-26T23:20:13.876Z,0.60
2023-02-26T23:22:43.797Z,0.50
2023-02-26T23:25:12.132Z,0.52
2023-02-26T23:27:39.329Z,0.50
2023-02-26T23:30:06.470Z,0.60
2023-02-26T23:32:33.126Z,0.50
2023-02-26T23:34:59.917Z,0.50
2023-02-26T23:37:26.577Z,0.50
2023-02-26T23:39:53.177Z,0.60
2023-02-26T23:42:19.938Z,0.55
2023-02-26T23:44:46.668Z,0.50
2023-02-26T23:47:13.558Z,0.50
2023-02-26T23:49:40.208Z,0.50
2023-02-26T23:52:06.879Z,0.50
2023-02-26T23:54:33.851Z,0.50
2023-02-26T23:57:00.528Z,0.50
2023-02-26T23:59:27.217Z,0.50
